sensor_id;sensor_type;location;lat;lon;timestamp;P1;durP1;ratioP1;P2;durP2;ratioP2
21266;SDS011;10791;53.108;18.326;2023-03-03T05:58:24;28.40;;;9.60;;
21266;SDS011;10791;53.108;18.326;2023-03-03T06:03:27;32.03;;;13.17;;
21266;SDS011;10791;53.108;18.326;2023-03-03T06:08:30;28.53;;;13.37;;
21266;SDS011;10791;53.108;18.326;2023-03-03T06:13:34;29.87;;;12.17;;
21266;SDS011;10791;53.108;18.326;2023-03-03T06:18:37;25.23;;;11.10;;
21266;SDS011;10791;53.108;18.326;2023-03-03T06:23:40;27.33;;;13.37;;
21266;SDS011;10791;53.108;18.326;2023-03-03T06:28:43;27.73;;;13.03;;
21266;SDS011;10791;53.108;18.326;2023-03-03T06:33:46;31.17;;;14.20;;
21266;SDS011;10791;53.108;18.326;2023-03-03T06:38:50;31.93;;;13.03;;
21266;SDS011;10791;53.108;18.326;2023-03-03T06:43:53;24.13;;;10.27;;
21266;SDS011;10791;53.108;18.326;2023-03-03T06:48:56;29.73;;;12.77;;
21266;SDS011;10791;53.108;18.326;2023-03-03T06:54:13;32.77;;;14.97;;
21266;SDS011;10791;53.108;18.326;2023-03-03T06:59:19;22.10;;;10.97;;
21266;SDS011;10791;53.108;18.326;2023-03-03T07:04:24;29.50;;;11.70;;
21266;SDS011;10791;53.108;18.326;2023-03-03T07:09:33;22.33;;;11.23;;
21266;SDS011;10791;53.108;18.326;2023-03-03T07:14:39;21.27;;;8.60;;
21266;SDS011;10791;53.108;18.326;2023-03-03T07:19:44;13.33;;;6.87;;
21266;SDS011;10791;53.108;18.326;2023-03-03T07:24:52;21.00;;;9.90;;
21266;SDS011;10791;53.108;18.326;2023-03-03T07:30:44;20.77;;;9.23;;
21266;SDS011;10791;53.108;18.326;2023-03-03T07:40:41;20.97;;;9.03;;
21266;SDS011;10791;53.108;18.326;2023-03-03T07:45:57;24.63;;;10.17;;
21266;SDS011;10791;53.108;18.326;2023-03-03T07:51:21;20.40;;;9.03;;
21266;SDS011;10791;53.108;18.326;2023-03-03T07:56:34;17.10;;;8.00;;
21266;SDS011;10791;53.108;18.326;2023-03-03T08:01:40;19.27;;;9.03;;
21266;SDS011;10791;53.108;18.326;2023-03-03T08:06:50;19.90;;;6.83;;
21266;SDS011;10791;53.108;18.326;2023-03-03T08:11:56;17.57;;;7.27;;
21266;SDS011;10791;53.108;18.326;2023-03-03T08:17:14;14.40;;;5.97;;
21266;SDS011;10791;53.108;18.326;2023-03-03T08:27:28;17.70;;;7.67;;
21266;SDS011;10791;53.108;18.326;2023-03-03T08:32:31;12.53;;;6.00;;
21266;SDS011;10791;53.108;18.326;2023-03-03T08:37:35;17.70;;;7.27;;
21266;SDS011;10791;53.108;18.326;2023-03-03T08:42:38;15.90;;;6.40;;
21266;SDS011;10791;53.108;18.326;2023-03-03T08:47:41;12.90;;;6.27;;
21266;SDS011;10791;53.108;18.326;2023-03-03T08:52:46;14.17;;;6.83;;
21266;SDS011;10791;53.108;18.326;2023-03-03T08:57:50;14.63;;;6.63;;
21266;SDS011;10791;53.108;18.326;2023-03-03T09:02:53;14.23;;;7.37;;
21266;SDS011;10791;53.108;18.326;2023-03-03T09:07:57;13.60;;;6.17;;
21266;SDS011;10791;53.108;18.326;2023-03-03T09:13:11;13.10;;;6.23;;
21266;SDS011;10791;53.108;18.326;2023-03-03T09:18:53;12.67;;;6.17;;
21266;SDS011;10791;53.108;18.326;2023-03-03T09:23:52;22.17;;;9.57;;
21266;SDS011;10791;53.108;18.326;2023-03-03T09:39:28;16.17;;;7.07;;
21266;SDS011;10791;53.108;18.326;2023-03-03T09:50:01;10.90;;;4.53;;
21266;SDS011;10791;53.108;18.326;2023-03-03T10:06:03;14.83;;;7.50;;
21266;SDS011;10791;53.108;18.326;2023-03-03T10:16:56;17.50;;;8.53;;
21266;SDS011;10791;53.108;18.326;2023-03-03T10:27:39;16.47;;;7.40;;
21266;SDS011;10791;53.108;18.326;2023-03-03T10:33:00;18.03;;;9.17;;
21266;SDS011;10791;53.108;18.326;2023-03-03T10:59:47;16.23;;;7.03;;
21266;SDS011;10791;53.108;18.326;2023-03-03T11:05:11;11.70;;;5.17;;
21266;SDS011;10791;53.108;18.326;2023-03-03T11:21:06;15.03;;;6.50;;
21266;SDS011;10791;53.108;18.326;2023-03-03T11:48:25;16.97;;;6.80;;
21266;SDS011;10791;53.108;18.326;2023-03-03T11:54:02;13.47;;;5.43;;
21266;SDS011;10791;53.108;18.326;2023-03-03T12:04:53;12.57;;;5.80;;
21266;SDS011;10791;53.108;18.326;2023-03-03T12:10:05;15.80;;;7.20;;
21266;SDS011;10791;53.108;18.326;2023-03-03T12:20:59;14.33;;;7.53;;
21266;SDS011;10791;53.108;18.326;2023-03-03T12:26:19;15.33;;;6.57;;
21266;SDS011;10791;53.108;18.326;2023-03-03T12:31:38;14.00;;;5.87;;
21266;SDS011;10791;53.108;18.326;2023-03-03T12:37:56;16.93;;;7.87;;
21266;SDS011;10791;53.108;18.326;2023-03-03T12:48:15;17.43;;;8.13;;
21266;SDS011;10791;53.108;18.326;2023-03-03T12:53:38;18.20;;;8.30;;
21266;SDS011;10791;53.108;18.326;2023-03-03T13:25:58;15.30;;;8.13;;
21266;SDS011;10791;53.108;18.326;2023-03-03T13:31:18;16.70;;;7.03;;
21266;SDS011;10791;53.108;18.326;2023-03-03T13:36:35;17.83;;;7.73;;
21266;SDS011;10791;53.108;18.326;2023-03-03T13:41:50;16.70;;;7.70;;
21266;SDS011;10791;53.108;18.326;2023-03-03T13:47:25;18.10;;;8.60;;
21266;SDS011;10791;53.108;18.326;2023-03-03T13:52:40;19.90;;;10.77;;
21266;SDS011;10791;53.108;18.326;2023-03-03T14:09:22;15.60;;;9.57;;
21266;SDS011;10791;53.108;18.326;2023-03-03T14:14:50;15.40;;;9.50;;
21266;SDS011;10791;53.108;18.326;2023-03-03T14:20:21;12.83;;;7.20;;
21266;SDS011;10791;53.108;18.326;2023-03-03T14:25:56;15.37;;;8.70;;
21266;SDS011;10791;53.108;18.326;2023-03-03T14:31:01;16.60;;;8.33;;
21266;SDS011;10791;53.108;18.326;2023-03-03T14:36:17;16.67;;;8.73;;
21266;SDS011;10791;53.108;18.326;2023-03-03T14:41:35;14.67;;;8.03;;
21266;SDS011;10791;53.108;18.326;2023-03-03T14:46:42;13.80;;;6.30;;
21266;SDS011;10791;53.108;18.326;2023-03-03T14:51:46;13.10;;;7.53;;
21266;SDS011;10791;53.108;18.326;2023-03-03T14:56:56;14.50;;;7.03;;
21266;SDS011;10791;53.108;18.326;2023-03-03T15:07:32;15.13;;;7.87;;
21266;SDS011;10791;53.108;18.326;2023-03-03T15:12:40;16.30;;;8.40;;
21266;SDS011;10791;53.108;18.326;2023-03-03T15:17:52;14.10;;;6.07;;
21266;SDS011;10791;53.108;18.326;2023-03-03T15:33:45;13.00;;;6.47;;
21266;SDS011;10791;53.108;18.326;2023-03-03T15:39:10;14.27;;;7.37;;
21266;SDS011;10791;53.108;18.326;2023-03-03T15:55:09;16.67;;;8.57;;
21266;SDS011;10791;53.108;18.326;2023-03-03T16:05:53;16.07;;;8.30;;
21266;SDS011;10791;53.108;18.326;2023-03-03T16:26:53;16.27;;;8.63;;
21266;SDS011;10791;53.108;18.326;2023-03-03T16:32:11;15.07;;;8.10;;
21266;SDS011;10791;53.108;18.326;2023-03-03T16:42:33;14.87;;;9.20;;
21266;SDS011;10791;53.108;18.326;2023-03-03T16:47:39;15.40;;;8.20;;
21266;SDS011;10791;53.108;18.326;2023-03-03T16:52:56;17.60;;;9.07;;
21266;SDS011;10791;53.108;18.326;2023-03-03T16:58:07;17.67;;;9.17;;
21266;SDS011;10791;53.108;18.326;2023-03-03T17:03:43;17.03;;;8.37;;
21266;SDS011;10791;53.108;18.326;2023-03-03T17:14:47;19.43;;;9.20;;
21266;SDS011;10791;53.108;18.326;2023-03-03T17:25:30;16.83;;;9.07;;
21266;SDS011;10791;53.108;18.326;2023-03-03T17:36:01;23.80;;;11.50;;
21266;SDS011;10791;53.108;18.326;2023-03-03T17:47:06;17.67;;;9.60;;
21266;SDS011;10791;53.108;18.326;2023-03-03T17:52:49;19.60;;;9.37;;
21266;SDS011;10791;53.108;18.326;2023-03-03T18:25:25;19.93;;;8.63;;
21266;SDS011;10791;53.108;18.326;2023-03-03T18:31:00;22.13;;;9.40;;
21266;SDS011;10791;53.108;18.326;2023-03-03T18:42:02;19.93;;;9.67;;
21266;SDS011;10791;53.108;18.326;2023-03-03T18:47:18;28.20;;;10.80;;
21266;SDS011;10791;53.108;18.326;2023-03-03T18:53:04;19.30;;;9.77;;
21266;SDS011;10791;53.108;18.326;2023-03-03T18:58:47;20.23;;;9.47;;
21266;SDS011;10791;53.108;18.326;2023-03-03T19:03:56;21.00;;;10.10;;
21266;SDS011;10791;53.108;18.326;2023-03-03T19:09:44;26.83;;;9.97;;
21266;SDS011;10791;53.108;18.326;2023-03-03T19:14:59;28.00;;;10.87;;
21266;SDS011;10791;53.108;18.326;2023-03-03T19:20:11;20.90;;;8.80;;
21266;SDS011;10791;53.108;18.326;2023-03-03T19:25:27;26.77;;;10.63;;
21266;SDS011;10791;53.108;18.326;2023-03-03T19:30:56;29.63;;;11.13;;
21266;SDS011;10791;53.108;18.326;2023-03-03T19:36:13;18.33;;;9.20;;
21266;SDS011;10791;53.108;18.326;2023-03-03T20:13:57;21.33;;;10.63;;
21266;SDS011;10791;53.108;18.326;2023-03-03T20:19:34;23.57;;;12.07;;
21266;SDS011;10791;53.108;18.326;2023-03-03T20:24:57;28.03;;;12.33;;
21266;SDS011;10791;53.108;18.326;2023-03-03T20:30:19;26.17;;;11.70;;
21266;SDS011;10791;53.108;18.326;2023-03-03T20:40:54;24.70;;;12.00;;
21266;SDS011;10791;53.108;18.326;2023-03-03T20:57:05;30.07;;;13.53;;
21266;SDS011;10791;53.108;18.326;2023-03-03T21:03:13;27.27;;;13.00;;
21266;SDS011;10791;53.108;18.326;2023-03-03T21:13:59;23.53;;;10.93;;
21266;SDS011;10791;53.108;18.326;2023-03-03T21:24:49;21.67;;;9.63;;
21266;SDS011;10791;53.108;18.326;2023-03-03T21:30:07;22.53;;;11.30;;
21266;SDS011;10791;53.108;18.326;2023-03-03T21:35:16;24.73;;;11.87;;
21266;SDS011;10791;53.108;18.326;2023-03-03T21:40:26;19.77;;;10.77;;
21266;SDS011;10791;53.108;18.326;2023-03-03T21:45:37;24.07;;;11.30;;
21266;SDS011;10791;53.108;18.326;2023-03-03T21:50:49;21.33;;;11.47;;
21266;SDS011;10791;53.108;18.326;2023-03-03T21:55:53;24.33;;;11.83;;
21266;SDS011;10791;53.108;18.326;2023-03-03T22:00:57;25.33;;;12.43;;
21266;SDS011;10791;53.108;18.326;2023-03-03T22:06:01;26.97;;;12.57;;
21266;SDS011;10791;53.108;18.326;2023-03-03T22:11:04;21.10;;;10.93;;
21266;SDS011;10791;53.108;18.326;2023-03-03T22:16:09;23.40;;;10.73;;
21266;SDS011;10791;53.108;18.326;2023-03-03T22:21:14;23.27;;;11.73;;
21266;SDS011;10791;53.108;18.326;2023-03-03T22:26:18;22.50;;;11.20;;
21266;SDS011;10791;53.108;18.326;2023-03-03T22:31:23;20.63;;;11.50;;
21266;SDS011;10791;53.108;18.326;2023-03-03T22:36:26;26.37;;;12.80;;
21266;SDS011;10791;53.108;18.326;2023-03-03T22:41:30;21.63;;;10.57;;
21266;SDS011;10791;53.108;18.326;2023-03-03T22:46:33;20.93;;;10.63;;
21266;SDS011;10791;53.108;18.326;2023-03-03T22:51:43;29.53;;;14.00;;
21266;SDS011;10791;53.108;18.326;2023-03-03T22:56:46;25.47;;;12.60;;
21266;SDS011;10791;53.108;18.326;2023-03-03T23:01:49;27.13;;;13.07;;
21266;SDS011;10791;53.108;18.326;2023-03-03T23:06:52;21.53;;;11.53;;
21266;SDS011;10791;53.108;18.326;2023-03-03T23:11:56;27.10;;;14.30;;
21266;SDS011;10791;53.108;18.326;2023-03-03T23:16:59;28.30;;;13.40;;
21266;SDS011;10791;53.108;18.326;2023-03-03T23:22:02;25.63;;;12.40;;
21266;SDS011;10791;53.108;18.326;2023-03-03T23:27:06;24.77;;;12.90;;
21266;SDS011;10791;53.108;18.326;2023-03-03T23:32:11;26.80;;;13.53;;
21266;SDS011;10791;53.108;18.326;2023-03-03T23:37:14;27.33;;;13.67;;
21266;SDS011;10791;53.108;18.326;2023-03-03T23:42:18;24.70;;;13.07;;
21266;SDS011;10791;53.108;18.326;2023-03-03T23:47:21;27.70;;;12.90;;
21266;SDS011;10791;53.108;18.326;2023-03-03T23:52:25;24.87;;;12.43;;
21266;SDS011;10791;53.108;18.326;2023-03-03T23:57:28;25.00;;;12.37;;
